Time;durP1;ratioP1;P1;durP2;ratioP2;P2;SDS_P1;SDS_P2;PMS_P1;PMS_P2;Temp;Humidity;BMP_temperature;BMP_pressure;BME280_temperature;BME280_humidity;BME280_pressure;Samples;Min_cycle;Max_cycle;Signal;HPM_P1;HPM_P2
2022/12/08 00:00:09;;;;;;;;;;;;;;;5.01;59.65;99409.63;5055340;28;19929;-55
2022/12/08 00:02:34;;;;;;;;;;;;;;;4.97;59.88;99412.28;5054386;28;19921;-56
2022/12/08 00:10:27;;;;;;;;;;;;;;;5.27;59.68;99417.06;5035463;28;19933;-55
2022/12/08 00:12:53;;;;;;;;;;;;;;;4.96;61.10;99418.38;5052023;28;19925;-54
2022/12/08 00:15:18;;;;;;;;;;;;;;;5.04;59.78;99429.56;5036615;28;19925;-54
2022/12/08 00:17:43;;;;;;;;;;;;;;;5.16;60.34;99413.75;5044357;28;20333;-51
2022/12/08 00:20:09;;;;;;;;;;;;;;;4.99;59.70;99418.31;5035345;28;19922;-52
2022/12/08 00:22:34;;;;;;;;;;;;;;;4.87;60.15;99424.59;5033919;28;19925;-51
2022/12/08 00:24:59;;;;;;;;;;;;;;;4.80;59.96;99430.75;5035333;28;19929;-55
2022/12/08 00:27:24;;;;;;;;;;;;;;;4.93;60.17;99432.28;5035993;28;19944;-54
2022/12/08 00:29:50;;;;;;;;;;;;;;;4.98;60.28;99438.28;5038762;28;20043;-52
2022/12/08 00:32:15;;;;;;;;;;;;;;;5.24;59.61;99437.94;5036351;28;20396;-53
2022/12/08 00:34:40;;;;;;;;;;;;;;;5.36;60.47;99444.69;5035311;28;20008;-53
2022/12/08 00:37:05;;;;;;;;;;;;;;;5.31;59.44;99443.91;5035666;28;20380;-53
2022/12/08 00:39:31;;;;;;;;;;;;;;;5.04;59.96;99451.25;5035344;28;19983;-51
2022/12/08 00:42:11;;;;;;;;;;;;;;;5.22;59.54;99446.63;5037489;28;19921;-52
2022/12/08 00:44:36;;;;;;;;;;;;;;;5.31;59.80;99449.97;5055002;28;19917;-51
2022/12/08 00:47:02;;;;;;;;;;;;;;;5.44;60.29;99448.91;5054436;28;19932;-52
2022/12/08 00:49:27;;;;;;;;;;;;;;;5.32;60.82;99450.84;5052185;28;20434;-50
2022/12/08 00:51:52;;;;;;;;;;;;;;;5.11;59.88;99455.47;5053413;28;19929;-52
2022/12/08 00:54:18;;;;;;;;;;;;;;;5.30;59.69;99463.88;5048502;28;19925;-50
2022/12/08 00:56:43;;;;;;;;;;;;;;;5.06;60.16;99475.50;5054404;28;19960;-51
2022/12/08 00:59:08;;;;;;;;;;;;;;;5.36;60.33;99470.75;5052800;28;19913;-51
2022/12/08 01:01:34;;;;;;;;;;;;;;;5.28;60.18;99462.19;5040155;28;20015;-51
2022/12/08 01:04:03;;;;;;;;;;;;;;;5.29;60.40;99459.53;5033462;28;20369;-51
2022/12/08 01:06:29;;;;;;;;;;;;;;;5.21;59.44;99464.00;5034278;28;19921;-51
2022/12/08 01:08:54;;;;;;;;;;;;;;;5.19;60.29;99456.22;5034696;28;19964;-53
2022/12/08 01:11:19;;;;;;;;;;;;;;;5.22;59.41;99464.88;5034407;28;20388;-52
2022/12/08 01:13:46;;;;;;;;;;;;;;;5.01;60.31;99471.25;5034724;28;19921;-53
2022/12/08 01:16:21;;;;;;;;;;;;;;;4.82;60.31;99468.88;5034057;28;20010;-53
2022/12/08 01:18:47;;;;;;;;;;;;;;;4.83;60.33;99467.16;5040207;28;19976;-54
2022/12/08 01:21:12;;;;;;;;;;;;;;;4.88;61.04;99468.81;5054062;28;20301;-52
2022/12/08 01:23:37;;;;;;;;;;;;;;;4.90;60.43;99468.78;5052029;28;20415;-51
2022/12/08 01:26:04;;;;;;;;;;;;;;;4.91;60.41;99473.13;5035971;28;19925;-52
2022/12/08 01:28:30;;;;;;;;;;;;;;;5.11;59.87;99476.31;5034119;28;19917;-52
2022/12/08 01:30:55;;;;;;;;;;;;;;;5.09;61.01;99480.66;5042058;28;19917;-51
2022/12/08 01:33:21;;;;;;;;;;;;;;;5.33;59.48;99476.00;5053961;28;19932;-52
2022/12/08 01:35:46;;;;;;;;;;;;;;;5.00;59.77;99488.63;5052803;28;19920;-49
2022/12/08 01:38:11;;;;;;;;;;;;;;;4.69;60.53;99482.94;5036017;28;19932;-49
2022/12/08 01:40:36;;;;;;;;;;;;;;;4.45;62.09;99494.47;5032786;28;19967;-49
2022/12/08 01:43:02;;;;;;;;;;;;;;;4.37;61.23;99488.50;5044251;28;19975;-50
2022/12/08 01:45:28;;;;;;;;;;;;;;;4.53;60.64;99487.44;5045258;28;19927;-49
2022/12/08 01:47:56;;;;;;;;;;;;;;;4.32;61.36;99498.09;5039287;28;20288;-49
2022/12/08 01:50:22;;;;;;;;;;;;;;;4.55;60.94;99485.72;5032649;28;19918;-51
2022/12/08 01:53:10;;;;;;;;;;;;;;;4.62;61.70;99489.06;5034277;28;19995;-49
2022/12/08 01:55:39;;;;;;;;;;;;;;;4.72;60.81;99489.84;5030842;28;19972;-53
2022/12/08 01:58:09;;;;;;;;;;;;;;;4.87;60.40;99487.06;5048073;28;20376;-54
2022/12/08 02:00:35;;;;;;;;;;;;;;;5.03;59.86;99490.31;5043738;28;19948;-50
2022/12/08 02:03:09;;;;;;;;;;;;;;;4.98;59.40;99495.56;5053107;28;19968;-53
2022/12/08 02:05:37;;;;;;;;;;;;;;;5.11;60.31;99489.34;5042847;28;19923;-51
2022/12/08 02:08:05;;;;;;;;;;;;;;;5.06;59.85;99493.72;5036260;28;20331;-52
2022/12/08 02:10:32;;;;;;;;;;;;;;;5.16;60.06;99492.72;5037471;28;19944;-54
2022/12/08 02:12:58;;;;;;;;;;;;;;;5.22;59.64;99490.91;5055286;28;20027;-51
2022/12/08 02:15:31;;;;;;;;;;;;;;;5.18;59.83;99498.75;5058308;28;20380;-52
2022/12/08 02:17:59;;;;;;;;;;;;;;;5.08;58.69;99499.78;5051546;28;19921;-49
2022/12/08 02:20:30;;;;;;;;;;;;;;;5.13;58.93;99497.13;5057590;28;20350;-50
2022/12/08 02:23:14;;;;;;;;;;;;;;;5.28;59.00;99512.53;5047806;28;19917;-53
2022/12/08 02:26:00;;;;;;;;;;;;;;;5.21;59.12;99504.81;5037276;28;20337;-51
2022/12/08 02:28:25;;;;;;;;;;;;;;;4.91;59.38;99518.22;5026406;28;19921;-51
2022/12/08 02:31:03;;;;;;;;;;;;;;;4.87;59.46;99515.69;5037795;28;20355;-50
2022/12/08 02:33:44;;;;;;;;;;;;;;;4.59;60.07;99512.56;5051910;28;19920;-50
2022/12/08 02:36:25;;;;;;;;;;;;;;;4.90;60.12;99500.88;5037733;28;19920;-53
2022/12/08 02:38:50;;;;;;;;;;;;;;;5.08;59.57;99504.13;5052325;28;20308;-53
2022/12/08 02:41:34;;;;;;;;;;;;;;;5.14;59.44;99515.31;5055732;28;19920;-53
2022/12/08 02:44:05;;;;;;;;;;;;;;;4.91;59.81;99501.75;5057032;28;20334;-52
2022/12/08 02:46:34;;;;;;;;;;;;;;;5.21;59.68;99504.81;5036912;28;19959;-52
2022/12/08 02:48:59;;;;;;;;;;;;;;;5.20;59.73;99509.19;5056658;28;19925;-51
2022/12/08 02:51:25;;;;;;;;;;;;;;;5.04;59.63;99510.25;5042659;28;19944;-49
2022/12/08 02:53:51;;;;;;;;;;;;;;;5.11;61.25;99512.78;5036791;28;19947;-53
2022/12/08 02:56:29;;;;;;;;;;;;;;;5.05;59.73;99512.84;5043381;28;19970;-51
2022/12/08 02:58:55;;;;;;;;;;;;;;;5.22;59.53;99511.75;5050062;28;19925;-49
2022/12/08 03:01:39;;;;;;;;;;;;;;;5.08;59.55;99507.59;5046016;28;20285;-50
2022/12/08 03:04:12;;;;;;;;;;;;;;;5.24;59.75;99512.59;5034473;28;19917;-54
2022/12/08 03:06:58;;;;;;;;;;;;;;;5.21;59.73;99515.25;5039098;28;20450;-52
2022/12/08 03:09:34;;;;;;;;;;;;;;;5.09;60.14;99516.25;5043994;28;19956;-52
2022/12/08 03:12:11;;;;;;;;;;;;;;;5.07;59.83;99512.84;5039205;28;19927;-52
2022/12/08 03:14:38;;;;;;;;;;;;;;;4.99;60.77;99520.75;5035669;28;19917;-49
2022/12/08 03:17:04;;;;;;;;;;;;;;;4.82;61.74;99517.47;5035086;28;20027;-53
2022/12/08 03:19:33;;;;;;;;;;;;;;;4.88;60.74;99525.22;5035668;28;19967;-50
2022/12/08 03:22:01;;;;;;;;;;;;;;;5.07;60.55;99523.25;5034966;28;20377;-52
2022/12/08 03:24:27;;;;;;;;;;;;;;;5.17;59.62;99524.84;5035345;28;19922;-52
2022/12/08 03:27:13;;;;;;;;;;;;;;;5.00;59.72;99517.25;5035452;28;19917;-51
2022/12/08 03:29:39;;;;;;;;;;;;;;;5.21;59.96;99529.13;5036421;28;19921;-50
2022/12/08 03:32:16;;;;;;;;;;;;;;;5.25;59.78;99530.81;5035113;28;19966;-50
2022/12/08 03:34:45;;;;;;;;;;;;;;;5.09;62.83;99531.88;5035045;28;19921;-50
2022/12/08 03:37:10;;;;;;;;;;;;;;;4.91;59.58;99528.66;5037230;28;19923;-49
2022/12/08 03:39:35;;;;;;;;;;;;;;;4.82;59.80;99533.09;5037563;28;19921;-51
2022/12/08 03:42:00;;;;;;;;;;;;;;;5.24;59.47;99536.03;5054762;28;19921;-50
2022/12/08 03:44:26;;;;;;;;;;;;;;;5.12;60.10;99543.13;5053879;28;19928;-51
2022/12/08 03:46:51;;;;;;;;;;;;;;;5.04;59.58;99538.91;5053423;28;20392;-50
2022/12/08 03:49:16;;;;;;;;;;;;;;;5.32;63.74;99539.41;5054583;28;19929;-54
2022/12/08 03:51:42;;;;;;;;;;;;;;;5.49;59.61;99540.03;5037420;28;19971;-52
2022/12/08 03:54:07;;;;;;;;;;;;;;;5.48;58.67;99546.13;4971429;28;1841858;-53
2022/12/08 03:56:34;;;;;;;;;;;;;;;5.53;60.04;99548.66;5035935;28;20017;-52
2022/12/08 03:59:00;;;;;;;;;;;;;;;5.44;60.32;99549.66;5036342;28;19917;-53
2022/12/08 04:01:26;;;;;;;;;;;;;;;4.89;60.13;99539.94;5044962;28;19916;-50
2022/12/08 04:03:51;;;;;;;;;;;;;;;5.32;61.35;99548.06;5056380;28;19978;-50
2022/12/08 04:06:17;;;;;;;;;;;;;;;5.27;60.17;99555.09;5049623;28;19916;-51
2022/12/08 04:08:42;;;;;;;;;;;;;;;5.25;60.20;99553.38;5054699;28;19974;-53
2022/12/08 04:11:08;;;;;;;;;;;;;;;4.85;60.52;99546.94;5040032;28;19917;-50
2022/12/08 04:13:34;;;;;;;;;;;;;;;4.81;61.86;99537.44;5035573;28;19976;-52
2022/12/08 04:15:59;;;;;;;;;;;;;;;4.91;61.06;99544.28;5035309;28;20017;-50
2022/12/08 04:18:25;;;;;;;;;;;;;;;4.53;60.20;99542.09;5039997;28;20004;-51
2022/12/08 04:20:50;;;;;;;;;;;;;;;4.56;61.44;99551.59;5052743;28;20356;-54
2022/12/08 04:23:15;;;;;;;;;;;;;;;4.40;60.38;99554.34;5040266;28;19928;-53
2022/12/08 04:25:41;;;;;;;;;;;;;;;4.38;61.50;99556.09;5042171;28;19920;-54
2022/12/08 04:28:06;;;;;;;;;;;;;;;4.14;60.55;99564.13;5042548;28;19918;-52
2022/12/08 04:30:32;;;;;;;;;;;;;;;4.14;60.80;99559.78;5038272;28;20323;-52
2022/12/08 04:32:57;;;;;;;;;;;;;;;4.54;61.39;99556.81;5036335;28;19999;-51
2022/12/08 04:35:22;;;;;;;;;;;;;;;4.57;60.23;99561.13;5049370;28;19935;-51
2022/12/08 04:37:47;;;;;;;;;;;;;;;4.11;60.94;99559.84;5043792;28;19967;-53
2022/12/08 04:40:13;;;;;;;;;;;;;;;4.00;61.36;99573.78;5047895;28;19928;-53
2022/12/08 04:42:38;;;;;;;;;;;;;;;4.05;62.42;99580.66;5037765;28;19921;-53
2022/12/08 04:45:04;;;;;;;;;;;;;;;4.54;61.64;99574.16;5049497;28;19971;-51
2022/12/08 04:47:30;;;;;;;;;;;;;;;4.32;60.14;99584.78;5054355;28;20407;-52
2022/12/08 04:49:55;;;;;;;;;;;;;;;4.47;60.49;99586.38;5054497;28;19925;-52
2022/12/08 04:52:20;;;;;;;;;;;;;;;4.66;59.17;99589.66;5049275;28;20376;-53
2022/12/08 04:54:46;;;;;;;;;;;;;;;4.53;60.84;99583.72;5054545;28;20007;-50
2022/12/08 04:57:11;;;;;;;;;;;;;;;4.43;59.70;99582.09;5047759;28;19929;-51
2022/12/08 04:59:36;;;;;;;;;;;;;;;4.58;59.99;99581.06;5039600;28;19928;-52
2022/12/08 05:02:02;;;;;;;;;;;;;;;4.45;60.25;99573.38;5044983;28;19932;-53
2022/12/08 05:04:27;;;;;;;;;;;;;;;4.60;59.87;99569.75;5043095;28;19985;-52
2022/12/08 05:06:52;;;;;;;;;;;;;;;4.30;61.31;99586.50;5048911;28;20376;-54
2022/12/08 05:09:17;;;;;;;;;;;;;;;4.29;60.52;99578.75;5039860;28;19932;-54
2022/12/08 05:11:43;;;;;;;;;;;;;;;4.24;60.86;99580.53;5030949;28;20455;-53
2022/12/08 05:14:11;;;;;;;;;;;;;;;4.06;61.05;99584.13;5044419;28;19924;-52
2022/12/08 05:16:37;;;;;;;;;;;;;;;4.11;61.25;99590.13;5036068;28;19916;-52
2022/12/08 05:19:02;;;;;;;;;;;;;;;3.90;61.40;99592.03;5044008;28;19928;-55
2022/12/08 05:21:28;;;;;;;;;;;;;;;3.98;62.91;99581.59;5034180;28;20423;-51
2022/12/08 05:23:53;;;;;;;;;;;;;;;4.05;62.12;99585.00;5034566;28;20011;-51
2022/12/08 05:26:18;;;;;;;;;;;;;;;3.93;61.89;99588.56;5033947;28;20084;-50
2022/12/08 05:28:43;;;;;;;;;;;;;;;4.03;62.19;99591.94;5042590;28;19924;-51
2022/12/08 05:31:10;;;;;;;;;;;;;;;3.91;61.27;99588.59;5048623;28;20015;-54
2022/12/08 05:33:35;;;;;;;;;;;;;;;4.06;61.48;99595.38;5041747;28;19921;-51
2022/12/08 05:36:00;;;;;;;;;;;;;;;3.97;60.65;99592.00;5033226;28;20015;-49
2022/12/08 05:38:26;;;;;;;;;;;;;;;3.97;61.66;99598.06;5034127;28;19975;-50
2022/12/08 05:40:51;;;;;;;;;;;;;;;3.91;63.44;99598.09;5033489;28;19970;-53
2022/12/08 05:43:16;;;;;;;;;;;;;;;3.95;62.68;99600.69;5031675;28;20403;-52
2022/12/08 05:45:41;;;;;;;;;;;;;;;3.73;61.10;99606.03;5045628;28;19970;-54
2022/12/08 05:48:07;;;;;;;;;;;;;;;3.70;61.59;99609.50;5054310;28;19920;-53
2022/12/08 05:50:32;;;;;;;;;;;;;;;3.70;61.07;99607.75;5052715;28;20007;-52
2022/12/08 05:52:58;;;;;;;;;;;;;;;3.56;61.92;99614.78;5048702;28;19926;-50
2022/12/08 05:55:23;;;;;;;;;;;;;;;3.54;63.88;99615.66;5033117;28;19929;-52
2022/12/08 05:57:48;;;;;;;;;;;;;;;3.57;62.30;99619.09;5033586;28;19933;-50
2022/12/08 06:00:14;;;;;;;;;;;;;;;3.50;62.20;99622.59;5030649;28;19932;-52
2022/12/08 06:02:39;;;;;;;;;;;;;;;3.53;63.14;99630.38;5035552;28;20016;-49
2022/12/08 06:05:04;;;;;;;;;;;;;;;3.37;62.84;99631.31;5032402;28;19929;-51
2022/12/08 06:07:30;;;;;;;;;;;;;;;3.50;61.90;99622.59;5049262;28;19925;-51
2022/12/08 06:09:55;;;;;;;;;;;;;;;3.40;62.78;99631.31;5035301;28;19925;-52
2022/12/08 06:12:20;;;;;;;;;;;;;;;3.41;62.45;99627.84;5033861;28;19913;-55
2022/12/08 06:14:45;;;;;;;;;;;;;;;3.51;63.02;99634.72;5033729;28;19917;-50
2022/12/08 06:17:11;;;;;;;;;;;;;;;3.73;61.43;99634.59;5032882;28;19968;-53
2022/12/08 06:19:36;;;;;;;;;;;;;;;3.88;61.05;99642.31;5033598;28;19929;-56
2022/12/08 06:22:01;;;;;;;;;;;;;;;3.91;60.42;99639.69;5033496;28;20438;-54
2022/12/08 06:24:27;;;;;;;;;;;;;;;4.11;60.08;99648.22;5033635;28;20012;-51
2022/12/08 06:26:52;;;;;;;;;;;;;;;4.22;60.62;99642.94;5032905;28;19921;-55
2022/12/08 06:29:17;;;;;;;;;;;;;;;4.19;59.73;99640.38;5049747;28;20023;-54
2022/12/08 06:31:42;;;;;;;;;;;;;;;4.10;59.56;99650.81;5046356;28;20019;-52
2022/12/08 06:34:08;;;;;;;;;;;;;;;4.04;59.11;99646.53;5035224;28;20274;-54
2022/12/08 06:36:33;;;;;;;;;;;;;;;4.02;59.09;99648.28;5034895;28;19929;-53
2022/12/08 06:38:59;;;;;;;;;;;;;;;3.90;59.55;99646.63;5036097;28;19925;-53
2022/12/08 06:41:24;;;;;;;;;;;;;;;4.07;59.73;99656.94;5033639;28;20266;-53
2022/12/08 06:43:49;;;;;;;;;;;;;;;4.11;59.07;99653.44;5033413;28;19964;-53
2022/12/08 06:46:16;;;;;;;;;;;;;;;3.88;59.68;99650.13;5033590;28;19948;-52
2022/12/08 06:48:41;;;;;;;;;;;;;;;4.06;59.69;99656.91;5037646;28;20353;-50
2022/12/08 06:51:07;;;;;;;;;;;;;;;4.20;59.33;99655.94;5037448;28;19917;-55
2022/12/08 06:53:32;;;;;;;;;;;;;;;4.32;58.76;99656.75;5035640;28;19925;-51
2022/12/08 06:55:57;;;;;;;;;;;;;;;4.21;59.12;99664.63;5036982;28;19929;-51
2022/12/08 06:58:23;;;;;;;;;;;;;;;4.25;59.98;99662.84;5037010;28;19987;-51
2022/12/08 07:00:48;;;;;;;;;;;;;;;4.18;58.51;99668.09;5036632;28;20391;-51
2022/12/08 07:03:13;;;;;;;;;;;;;;;4.43;58.83;99667.94;5036553;28;19974;-54
2022/12/08 07:05:38;;;;;;;;;;;;;;;4.47;57.51;99666.13;5036703;28;20413;-52
2022/12/08 07:08:05;;;;;;;;;;;;;;;4.64;57.85;99677.28;5036648;28;20292;-54
2022/12/08 07:10:31;;;;;;;;;;;;;;;4.74;58.52;99678.06;5036000;28;20390;-51
2022/12/08 07:12:56;;;;;;;;;;;;;;;4.86;57.48;99678.78;5034401;28;19952;-53
2022/12/08 07:15:22;;;;;;;;;;;;;;;4.99;57.43;99689.97;5043523;28;19960;-52
2022/12/08 07:17:47;;;;;;;;;;;;;;;4.91;56.80;99689.19;5056647;28;20296;-51
2022/12/08 07:20:13;;;;;;;;;;;;;;;5.04;57.39;99690.78;5046833;28;19921;-50
2022/12/08 07:22:38;;;;;;;;;;;;;;;4.99;57.10;99691.69;5061648;28;19983;-52
2022/12/08 07:25:04;;;;;;;;;;;;;;;4.61;59.19;99692.91;5036349;28;19932;-50
2022/12/08 07:27:29;;;;;;;;;;;;;;;4.52;57.49;99701.66;5054206;28;20348;-51
2022/12/08 07:29:54;;;;;;;;;;;;;;;4.44;58.09;99700.88;5055960;28;20416;-53
2022/12/08 07:32:20;;;;;;;;;;;;;;;4.39;58.44;99700.91;5054509;28;19921;-51
2022/12/08 07:34:45;;;;;;;;;;;;;;;4.18;59.38;99711.44;5055479;28;19920;-50
2022/12/08 07:37:10;;;;;;;;;;;;;;;4.12;59.67;99717.53;5055013;28;19917;-51
2022/12/08 07:39:35;;;;;;;;;;;;;;;4.17;58.80;99710.56;5055432;28;19960;-52
2022/12/08 07:42:01;;;;;;;;;;;;;;;4.11;58.74;99717.53;5055028;28;19921;-50
2022/12/08 07:44:26;;;;;;;;;;;;;;;4.13;59.85;99724.47;5054918;28;19924;-53
2022/12/08 07:46:51;;;;;;;;;;;;;;;4.10;62.02;99713.22;5055603;28;19921;-55
2022/12/08 07:49:16;;;;;;;;;;;;;;;4.00;58.86;99717.63;5055678;28;19974;-52
2022/12/08 07:51:42;;;;;;;;;;;;;;;4.01;60.04;99724.53;5055833;28;19925;-54
2022/12/08 07:54:10;;;;;;;;;;;;;;;4.07;59.25;99719.31;5055711;28;19933;-52
2022/12/08 07:56:35;;;;;;;;;;;;;;;4.04;59.56;99718.47;5055510;28;19917;-50
2022/12/08 07:59:01;;;;;;;;;;;;;;;4.19;59.06;99719.25;5053517;28;19939;-55
2022/12/08 08:01:27;;;;;;;;;;;;;;;4.37;58.75;99728.66;5055940;28;19925;-53
2022/12/08 08:03:54;;;;;;;;;;;;;;;4.30;58.33;99729.56;5055568;28;19923;-53
2022/12/08 08:06:19;;;;;;;;;;;;;;;4.51;60.05;99731.16;5055972;28;20019;-55
2022/12/08 08:08:45;;;;;;;;;;;;;;;4.67;58.12;99727.56;5055368;28;19960;-52
2022/12/08 08:11:10;;;;;;;;;;;;;;;4.78;57.62;99724.00;5043503;28;20277;-53
2022/12/08 08:13:36;;;;;;;;;;;;;;;4.88;57.21;99725.66;5052739;28;19916;-54
2022/12/08 08:16:05;;;;;;;;;;;;;;;5.09;56.94;99730.66;5037351;28;19964;-55
2022/12/08 08:18:31;;;;;;;;;;;;;;;5.15;56.84;99728.00;5035086;28;19917;-52
2022/12/08 08:20:56;;;;;;;;;;;;;;;5.38;56.86;99725.13;5035413;28;19968;-54
2022/12/08 08:23:21;;;;;;;;;;;;;;;5.46;56.45;99727.66;5034596;28;19975;-53
2022/12/08 08:25:47;;;;;;;;;;;;;;;5.60;61.14;99724.91;5035042;28;20297;-54
2022/12/08 08:28:12;;;;;;;;;;;;;;;5.82;56.74;99725.50;5034089;28;19971;-52
2022/12/08 08:30:37;;;;;;;;;;;;;;;5.82;54.56;99722.88;5033207;28;20301;-54
2022/12/08 08:33:03;;;;;;;;;;;;;;;5.90;55.56;99723.66;5031565;28;20072;-53
2022/12/08 08:35:29;;;;;;;;;;;;;;;5.83;55.01;99722.03;5032432;28;19921;-53
2022/12/08 08:37:54;;;;;;;;;;;;;;;5.73;55.50;99729.09;5032886;28;19925;-52
2022/12/08 08:40:20;;;;;;;;;;;;;;;5.77;56.50;99732.53;5033244;28;19928;-55
2022/12/08 08:42:45;;;;;;;;;;;;;;;5.81;54.23;99736.81;5032852;28;19968;-53
2022/12/08 08:45:10;;;;;;;;;;;;;;;5.84;54.12;99734.19;5033789;28;19924;-56
2022/12/08 08:47:36;;;;;;;;;;;;;;;5.77;54.48;99738.59;5034603;28;20051;-54
2022/12/08 08:50:01;;;;;;;;;;;;;;;5.82;54.55;99742.00;5034841;28;19917;-52
2022/12/08 08:52:26;;;;;;;;;;;;;;;5.77;55.51;99748.16;5034952;28;20261;-51
2022/12/08 08:54:51;;;;;;;;;;;;;;;5.75;53.83;99745.59;5034761;28;20353;-52
2022/12/08 08:57:17;;;;;;;;;;;;;;;5.90;54.70;99749.72;5034638;28;20360;-53
2022/12/08 08:59:42;;;;;;;;;;;;;;;5.91;53.82;99748.88;5033569;28;19921;-53
2022/12/08 09:02:14;;;;;;;;;;;;;;;5.99;53.82;99747.06;5034186;28;19917;-53
2022/12/08 09:04:40;;;;;;;;;;;;;;;6.12;56.54;99748.59;5034623;28;19928;-52
2022/12/08 09:07:05;;;;;;;;;;;;;;;6.19;55.56;99738.97;5034216;28;19921;-52
2022/12/08 09:09:30;;;;;;;;;;;;;;;6.27;54.22;99747.53;5033146;28;20438;-54
2022/12/08 09:11:56;;;;;;;;;;;;;;;6.32;54.02;99737.03;5033284;28;19932;-51
2022/12/08 09:14:22;;;;;;;;;;;;;;;6.38;53.55;99737.81;5034334;28;19921;-53
2022/12/08 09:16:47;;;;;;;;;;;;;;;6.41;52.97;99736.88;5033362;28;19921;-55
2022/12/08 09:19:13;;;;;;;;;;;;;;;6.36;53.46;99733.50;5033936;28;19924;-54
2022/12/08 09:21:38;;;;;;;;;;;;;;;6.32;52.25;99737.03;5034248;28;19971;-54
2022/12/08 09:24:03;;;;;;;;;;;;;;;6.45;53.01;99735.09;5034834;28;20285;-51
2022/12/08 09:26:29;;;;;;;;;;;;;;;6.48;52.60;99735.91;5032954;28;19924;-52
2022/12/08 09:28:55;;;;;;;;;;;;;;;6.51;54.23;99738.47;5034195;28;20035;-50
2022/12/08 09:31:21;;;;;;;;;;;;;;;6.28;52.65;99738.81;5033826;28;19917;-51
2022/12/08 09:33:46;;;;;;;;;;;;;;;6.27;52.87;99736.25;5032830;28;19971;-53
2022/12/08 09:36:12;;;;;;;;;;;;;;;6.32;52.27;99737.03;5033870;28;19921;-51
2022/12/08 09:38:38;;;;;;;;;;;;;;;6.36;52.61;99730.88;5033457;28;20392;-52
2022/12/08 09:41:08;;;;;;;;;;;;;;;6.50;52.35;99734.13;5034034;28;19921;-50
2022/12/08 09:44:03;;;;;;;;;;;;;;;6.61;52.38;99733.97;5032122;28;20007;-50
2022/12/08 09:46:30;;;;;;;;;;;;;;;6.66;52.00;99726.91;5014410;28;20492;-50
2022/12/08 09:48:57;;;;;;;;;;;;;;;6.57;51.49;99722.72;5034261;28;20006;-50
2022/12/08 09:51:24;;;;;;;;;;;;;;;6.58;52.27;99721.84;5033811;28;20357;-51
2022/12/08 09:54:03;;;;;;;;;;;;;;;6.57;52.44;99727.94;5033550;28;19917;-53
2022/12/08 09:56:32;;;;;;;;;;;;;;;6.69;51.79;99726.88;5033807;28;19917;-53
2022/12/08 09:59:19;;;;;;;;;;;;;;;6.66;51.44;99722.59;5033830;28;19965;-52
2022/12/08 10:01:45;;;;;;;;;;;;;;;6.71;51.97;99721.66;5032768;28;19922;-53
2022/12/08 10:04:13;;;;;;;;;;;;;;;6.74;51.76;99727.66;5033036;28;20412;-51
2022/12/08 10:06:50;;;;;;;;;;;;;;;6.69;51.83;99726.03;5033794;28;19917;-53
2022/12/08 10:09:28;;;;;;;;;;;;;;;6.71;51.70;99727.72;5033511;28;20012;-53
2022/12/08 10:12:03;;;;;;;;;;;;;;;6.72;52.09;99720.75;5033946;28;19921;-54
2022/12/08 10:14:47;;;;;;;;;;;;;;;6.79;51.66;99727.59;5034006;28;19940;-54
2022/12/08 10:17:16;;;;;;;;;;;;;;;6.84;52.27;99717.94;5033694;28;19917;-51
2022/12/08 10:19:43;;;;;;;;;;;;;;;6.89;51.27;99710.88;5033526;28;19917;-52
2022/12/08 10:22:16;;;;;;;;;;;;;;;6.93;51.77;99715.16;5036378;28;19925;-51
2022/12/08 10:24:47;;;;;;;;;;;;;;;6.91;56.86;99712.59;5037519;28;19940;-50
2022/12/08 10:27:12;;;;;;;;;;;;;;;7.04;51.17;99712.38;5037525;28;19928;-54
2022/12/08 10:29:39;;;;;;;;;;;;;;;7.08;53.09;99700.97;5037477;28;19921;-52
2022/12/08 10:32:12;;;;;;;;;;;;;;;7.06;51.11;99707.97;5036065;28;19921;-56
2022/12/08 10:34:56;;;;;;;;;;;;;;;7.12;50.92;99694.81;5037692;28;19924;-54
2022/12/08 10:37:22;;;;;;;;;;;;;;;6.99;52.74;99691.56;5036498;28;19924;-53
2022/12/08 10:39:57;;;;;;;;;;;;;;;6.92;51.16;99689.94;5036146;28;19921;-55
2022/12/08 10:42:22;;;;;;;;;;;;;;;6.93;50.94;99701.25;5037319;28;20359;-55
2022/12/08 10:44:54;;;;;;;;;;;;;;;7.01;51.41;99705.44;5037186;28;20013;-54
2022/12/08 10:47:21;;;;;;;;;;;;;;;7.00;50.88;99693.28;5037130;28;19957;-55
2022/12/08 10:49:46;;;;;;;;;;;;;;;7.00;51.62;99687.19;5037353;28;19917;-54
2022/12/08 10:52:21;;;;;;;;;;;;;;;7.03;51.93;99676.69;5036940;28;19972;-54
2022/12/08 10:54:50;;;;;;;;;;;;;;;7.11;51.81;99685.25;5036734;28;19928;-54
2022/12/08 10:57:20;;;;;;;;;;;;;;;7.10;51.85;99684.41;5037650;28;19917;-54
2022/12/08 10:59:46;;;;;;;;;;;;;;;7.13;51.85;99673.00;5037597;28;20369;-54
2022/12/08 11:02:17;;;;;;;;;;;;;;;7.22;51.62;99669.34;5037074;28;19929;-53
2022/12/08 11:04:42;;;;;;;;;;;;;;;7.31;51.85;99672.66;5036647;28;19944;-54
2022/12/08 11:07:10;;;;;;;;;;;;;;;7.34;51.78;99674.34;5038869;28;19921;-54
2022/12/08 11:09:42;;;;;;;;;;;;;;;7.31;52.18;99662.22;5035601;28;19925;-52
2022/12/08 11:12:12;;;;;;;;;;;;;;;7.42;51.39;99654.16;5053889;28;20273;-52
2022/12/08 11:14:44;;;;;;;;;;;;;;;7.41;51.62;99650.66;5056448;28;19916;-51
2022/12/08 11:17:15;;;;;;;;;;;;;;;7.35;51.29;99658.66;5040500;28;19917;-55
2022/12/08 11:19:42;;;;;;;;;;;;;;;7.30;55.70;99657.00;5036814;28;19917;-50
2022/12/08 11:22:21;;;;;;;;;;;;;;;7.34;52.79;99648.19;5035155;28;20444;-51
2022/12/08 11:24:55;;;;;;;;;;;;;;;7.43;56.84;99655.03;5045656;28;19928;-49
2022/12/08 11:27:20;;;;;;;;;;;;;;;7.65;57.18;99644.06;5052824;28;19927;-50
2022/12/08 11:29:46;;;;;;;;;;;;;;;7.60;51.53;99643.31;5056520;28;19921;-52
2022/12/08 11:32:12;;;;;;;;;;;;;;;7.49;51.22;99640.06;5055707;28;20010;-51
2022/12/08 11:34:41;;;;;;;;;;;;;;;7.47;52.00;99633.16;5054828;28;19994;-50
2022/12/08 11:37:13;;;;;;;;;;;;;;;7.30;52.63;99628.25;5056266;28;19924;-50
2022/12/08 11:39:42;;;;;;;;;;;;;;;7.04;52.81;99632.25;5056263;28;20007;-51
2022/12/08 11:42:11;;;;;;;;;;;;;;;7.09;54.05;99635.63;5055827;28;19917;-51
2022/12/08 11:44:45;;;;;;;;;;;;;;;6.92;53.62;99629.88;5055802;28;20007;-52
2022/12/08 11:47:14;;;;;;;;;;;;;;;6.86;53.96;99629.97;5056111;28;19987;-50
2022/12/08 11:49:41;;;;;;;;;;;;;;;6.82;54.13;99631.81;5055911;28;20011;-55
2022/12/08 11:52:13;;;;;;;;;;;;;;;6.80;54.58;99630.09;5055777;28;19931;-52
2022/12/08 11:54:44;;;;;;;;;;;;;;;6.80;54.87;99628.34;5055506;28;19927;-54
2022/12/08 11:57:19;;;;;;;;;;;;;;;6.83;54.82;99622.22;5055495;28;19917;-53
2022/12/08 11:59:48;;;;;;;;;;;;;;;6.90;54.72;99623.78;5055853;28;19920;-53
2022/12/08 12:02:15;;;;;;;;;;;;;;;6.94;54.71;99622.00;5055491;28;20382;-53
2022/12/08 12:04:45;;;;;;;;;;;;;;;6.96;54.89;99617.63;5055189;28;19935;-51
2022/12/08 12:07:11;;;;;;;;;;;;;;;6.97;54.51;99608.88;5055437;28;19955;-51
2022/12/08 12:09:36;;;;;;;;;;;;;;;7.00;54.54;99609.69;5055687;28;19960;-50
2022/12/08 12:12:14;;;;;;;;;;;;;;;6.91;54.57;99604.66;5055389;28;19917;-55
2022/12/08 12:14:54;;;;;;;;;;;;;;;6.86;54.61;99607.34;5055184;28;19929;-55
2022/12/08 12:17:19;;;;;;;;;;;;;;;6.89;56.26;99609.03;5055369;28;19963;-54
2022/12/08 12:19:46;;;;;;;;;;;;;;;6.84;55.46;99603.03;5051339;28;19921;-50
2022/12/08 12:22:14;;;;;;;;;;;;;;;6.77;55.50;99601.41;5045513;28;19922;-50
2022/12/08 12:24:42;;;;;;;;;;;;;;;6.85;55.49;99608.22;5035767;28;19929;-53
2022/12/08 12:27:13;;;;;;;;;;;;;;;6.72;55.47;99604.13;5055164;28;19920;-54
2022/12/08 12:29:45;;;;;;;;;;;;;;;6.93;55.14;99600.25;5055054;28;19917;-52
2022/12/08 12:32:11;;;;;;;;;;;;;;;7.03;55.26;99593.09;5054628;28;20407;-52
2022/12/08 12:34:43;;;;;;;;;;;;;;;7.07;55.25;99593.00;5054742;28;20388;-54
2022/12/08 12:37:10;;;;;;;;;;;;;;;7.05;55.38;99599.16;5054809;28;20338;-51
2022/12/08 12:39:54;;;;;;;;;;;;;;;6.93;55.16;99594.16;5055060;28;19996;-53
2022/12/08 12:42:38;;;;;;;;;;;;;;;6.87;55.66;99590.78;5054926;28;19916;-53
2022/12/08 12:45:09;;;;;;;;;;;;;;;6.79;55.88;99594.44;5054407;28;19917;-54
2022/12/08 12:47:47;;;;;;;;;;;;;;;6.74;56.01;99591.03;5054596;28;20011;-50
2022/12/08 12:50:13;;;;;;;;;;;;;;;6.65;56.22;99590.31;5054724;28;19971;-51
2022/12/08 12:52:39;;;;;;;;;;;;;;;6.57;56.58;99586.13;5054609;28;20292;-52
2022/12/08 12:55:04;;;;;;;;;;;;;;;6.59;56.23;99582.59;5054573;28;20360;-49
2022/12/08 12:57:49;;;;;;;;;;;;;;;6.54;56.37;99579.22;5054341;28;19917;-51
2022/12/08 13:00:25;;;;;;;;;;;;;;;6.48;56.53;99571.50;5054229;28;19921;-51
2022/12/08 13:02:52;;;;;;;;;;;;;;;6.30;56.78;99567.44;5040331;28;19921;-52
2022/12/08 13:05:20;;;;;;;;;;;;;;;6.36;57.00;99563.88;5033338;28;19917;-52